sensor_id;sensor_type;location;lat;lon;timestamp;pressure;altitude;pressure_sealevel;temperature;humidity
24788;BME280;12883;52.662;5.196;2023-01-26T00:01:51;102505.94;;;3.16;100.00
24788;BME280;12883;52.662;5.196;2023-01-26T00:04:18;102508.00;;;3.24;100.00
24788;BME280;12883;52.662;5.196;2023-01-26T00:06:43;102510.13;;;3.19;100.00
24788;BME280;12883;52.662;5.196;2023-01-26T00:09:12;102514.16;;;3.12;100.00
24788;BME280;12883;52.662;5.196;2023-01-26T00:11:38;102492.22;;;3.13;100.00
24788;BME280;12883;52.662;5.196;2023-01-26T00:14:03;102480.34;;;3.07;100.00
24788;BME280;12883;52.662;5.196;2023-01-26T00:16:29;102507.09;;;3.12;100.00
24788;BME280;12883;52.662;5.196;2023-01-26T00:18:54;102506.41;;;3.21;100.00
24788;BME280;12883;52.662;5.196;2023-01-26T00:21:21;102496.72;;;3.11;100.00
24788;BME280;12883;52.662;5.196;2023-01-26T00:23:47;102503.53;;;3.13;100.00
24788;BME280;12883;52.662;5.196;2023-01-26T00:26:16;102450.06;;;2.80;100.00
24788;BME280;12883;52.662;5.196;2023-01-26T00:28:41;102474.00;;;2.99;100.00
24788;BME280;12883;52.662;5.196;2023-01-26T00:31:16;102491.97;;;3.16;100.00
24788;BME280;12883;52.662;5.196;2023-01-26T00:33:42;102486.00;;;3.14;100.00
24788;BME280;12883;52.662;5.196;2023-01-26T00:36:08;102472.97;;;3.01;100.00
24788;BME280;12883;52.662;5.196;2023-01-26T00:38:33;102487.69;;;3.15;100.00
24788;BME280;12883;52.662;5.196;2023-01-26T00:40:59;102490.31;;;3.15;100.00
24788;BME280;12883;52.662;5.196;2023-01-26T00:43:24;102463.25;;;2.91;100.00
24788;BME280;12883;52.662;5.196;2023-01-26T00:45:50;102489.16;;;3.19;100.00
24788;BME280;12883;52.662;5.196;2023-01-26T00:48:16;102490.94;;;3.18;100.00
24788;BME280;12883;52.662;5.196;2023-01-26T00:50:41;102486.53;;;3.19;100.00
24788;BME280;12883;52.662;5.196;2023-01-26T00:53:06;102484.63;;;3.21;100.00
24788;BME280;12883;52.662;5.196;2023-01-26T00:55:32;102479.59;;;3.18;100.00
24788;BME280;12883;52.662;5.196;2023-01-26T00:57:58;102435.66;;;2.98;100.00
24788;BME280;12883;52.662;5.196;2023-01-26T01:00:24;102488.81;;;3.23;100.00
24788;BME280;12883;52.662;5.196;2023-01-26T01:02:50;102483.16;;;3.17;100.00
24788;BME280;12883;52.662;5.196;2023-01-26T01:05:15;102424.22;;;2.99;100.00
24788;BME280;12883;52.662;5.196;2023-01-26T01:07:40;102476.03;;;3.19;100.00
24788;BME280;12883;52.662;5.196;2023-01-26T01:10:06;102484.19;;;3.27;100.00
24788;BME280;12883;52.662;5.196;2023-01-26T01:12:32;102483.56;;;3.23;100.00
24788;BME280;12883;52.662;5.196;2023-01-26T01:14:58;102490.50;;;3.24;100.00
24788;BME280;12883;52.662;5.196;2023-01-26T01:17:23;102489.44;;;3.27;100.00
24788;BME280;12883;52.662;5.196;2023-01-26T01:19:49;102483.66;;;3.22;100.00
24788;BME280;12883;52.662;5.196;2023-01-26T01:22:14;102497.78;;;3.32;100.00
24788;BME280;12883;52.662;5.196;2023-01-26T01:24:39;102486.91;;;3.25;100.00
24788;BME280;12883;52.662;5.196;2023-01-26T01:27:04;102487.28;;;3.32;100.00
24788;BME280;12883;52.662;5.196;2023-01-26T01:29:30;102488.13;;;3.32;100.00
24788;BME280;12883;52.662;5.196;2023-01-26T01:31:55;102483.94;;;3.30;100.00
24788;BME280;12883;52.662;5.196;2023-01-26T01:34:21;102478.09;;;3.26;100.00
24788;BME280;12883;52.662;5.196;2023-01-26T01:36:46;102491.13;;;3.39;100.00
24788;BME280;12883;52.662;5.196;2023-01-26T01:39:11;102493.16;;;3.35;100.00
24788;BME280;12883;52.662;5.196;2023-01-26T01:41:37;102452.38;;;3.08;100.00
24788;BME280;12883;52.662;5.196;2023-01-26T01:44:23;102495.47;;;3.40;100.00
24788;BME280;12883;52.662;5.196;2023-01-26T01:47:05;102473.25;;;3.33;100.00
24788;BME280;12883;52.662;5.196;2023-01-26T01:49:33;102492.09;;;3.38;100.00
24788;BME280;12883;52.662;5.196;2023-01-26T01:52:17;102464.69;;;3.18;100.00
24788;BME280;12883;52.662;5.196;2023-01-26T01:54:48;102480.34;;;3.43;100.00
24788;BME280;12883;52.662;5.196;2023-01-26T01:57:19;102453.66;;;3.26;100.00
24788;BME280;12883;52.662;5.196;2023-01-26T02:00:00;102476.16;;;3.41;100.00
24788;BME280;12883;52.662;5.196;2023-01-26T02:02:27;102480.09;;;3.46;100.00
24788;BME280;12883;52.662;5.196;2023-01-26T02:04:54;102452.13;;;3.34;100.00
24788;BME280;12883;52.662;5.196;2023-01-26T02:07:21;102484.91;;;3.52;100.00
24788;BME280;12883;52.662;5.196;2023-01-26T02:09:48;102480.72;;;3.50;100.00
24788;BME280;12883;52.662;5.196;2023-01-26T02:12:32;102483.56;;;3.47;100.00
24788;BME280;12883;52.662;5.196;2023-01-26T02:14:59;102488.06;;;3.45;100.00
24788;BME280;12883;52.662;5.196;2023-01-26T02:17:26;102456.06;;;3.29;100.00
24788;BME280;12883;52.662;5.196;2023-01-26T02:28:20;102474.50;;;3.51;100.00
24788;BME280;12883;52.662;5.196;2023-01-26T02:30:46;102462.06;;;3.42;100.00
24788;BME280;12883;52.662;5.196;2023-01-26T02:33:23;102484.56;;;3.57;100.00
24788;BME280;12883;52.662;5.196;2023-01-26T02:35:50;102492.81;;;3.63;100.00
24788;BME280;12883;52.662;5.196;2023-01-26T02:38:17;102448.09;;;3.41;100.00
24788;BME280;12883;52.662;5.196;2023-01-26T02:40:54;102481.31;;;3.53;100.00
24788;BME280;12883;52.662;5.196;2023-01-26T02:43:23;102484.66;;;3.55;100.00
24788;BME280;12883;52.662;5.196;2023-01-26T02:45:50;102458.50;;;3.43;100.00
24788;BME280;12883;52.662;5.196;2023-01-26T02:48:15;102467.38;;;3.53;100.00
24788;BME280;12883;52.662;5.196;2023-01-26T02:51:01;102471.41;;;3.46;100.00
24788;BME280;12883;52.662;5.196;2023-01-26T02:53:26;102484.09;;;3.63;100.00
24788;BME280;12883;52.662;5.196;2023-01-26T02:55:52;102495.28;;;3.77;100.00
24788;BME280;12883;52.662;5.196;2023-01-26T02:58:17;102482.59;;;3.71;100.00
24788;BME280;12883;52.662;5.196;2023-01-26T03:00:42;102438.00;;;3.48;100.00
24788;BME280;12883;52.662;5.196;2023-01-26T03:03:12;102489.28;;;3.75;100.00
24788;BME280;12883;52.662;5.196;2023-01-26T03:05:38;102485.22;;;3.71;100.00
24788;BME280;12883;52.662;5.196;2023-01-26T03:08:04;102480.56;;;3.75;100.00
24788;BME280;12883;52.662;5.196;2023-01-26T03:10:31;102490.38;;;3.84;100.00
24788;BME280;12883;52.662;5.196;2023-01-26T03:12:56;102487.66;;;3.85;100.00
24788;BME280;12883;52.662;5.196;2023-01-26T03:15:21;102475.19;;;3.76;100.00
24788;BME280;12883;52.662;5.196;2023-01-26T03:18:08;102463.16;;;3.74;100.00
24788;BME280;12883;52.662;5.196;2023-01-26T03:20:53;102489.47;;;3.96;100.00
24788;BME280;12883;52.662;5.196;2023-01-26T03:23:37;102490.75;;;3.90;100.00
24788;BME280;12883;52.662;5.196;2023-01-26T03:26:20;102494.78;;;3.83;100.00
24788;BME280;12883;52.662;5.196;2023-01-26T03:29:05;102486.09;;;3.94;100.00
24788;BME280;12883;52.662;5.196;2023-01-26T03:31:30;102496.28;;;3.98;100.00
24788;BME280;12883;52.662;5.196;2023-01-26T03:33:55;102497.59;;;4.04;100.00
24788;BME280;12883;52.662;5.196;2023-01-26T03:36:21;102498.66;;;4.01;100.00
24788;BME280;12883;52.662;5.196;2023-01-26T03:38:46;102490.22;;;4.09;100.00
24788;BME280;12883;52.662;5.196;2023-01-26T03:41:12;102485.69;;;4.11;100.00
24788;BME280;12883;52.662;5.196;2023-01-26T03:43:55;102483.53;;;4.16;100.00
24788;BME280;12883;52.662;5.196;2023-01-26T03:46:39;102488.56;;;4.19;100.00
24788;BME280;12883;52.662;5.196;2023-01-26T03:49:23;102485.69;;;4.22;100.00
24788;BME280;12883;52.662;5.196;2023-01-26T03:52:07;102486.78;;;4.30;100.00
24788;BME280;12883;52.662;5.196;2023-01-26T03:54:51;102481.53;;;4.30;100.00
24788;BME280;12883;52.662;5.196;2023-01-26T03:57:35;102476.75;;;4.35;100.00
24788;BME280;12883;52.662;5.196;2023-01-26T04:00:01;102481.66;;;4.40;100.00
24788;BME280;12883;52.662;5.196;2023-01-26T04:02:26;102478.81;;;4.43;100.00
24788;BME280;12883;52.662;5.196;2023-01-26T04:05:10;102487.41;;;4.45;100.00
24788;BME280;12883;52.662;5.196;2023-01-26T04:07:54;102457.53;;;4.46;100.00
24788;BME280;12883;52.662;5.196;2023-01-26T04:10:38;102474.25;;;4.55;100.00
24788;BME280;12883;52.662;5.196;2023-01-26T04:13:03;102477.59;;;4.57;100.00
24788;BME280;12883;52.662;5.196;2023-01-26T04:15:47;102477.13;;;4.63;100.00
24788;BME280;12883;52.662;5.196;2023-01-26T04:18:32;102475.91;;;4.67;100.00
24788;BME280;12883;52.662;5.196;2023-01-26T04:21:16;102471.88;;;4.63;100.00
24788;BME280;12883;52.662;5.196;2023-01-26T04:23:54;102467.06;;;4.79;100.00
24788;BME280;12883;52.662;5.196;2023-01-26T04:26:22;102471.00;;;4.85;100.00
24788;BME280;12883;52.662;5.196;2023-01-26T04:28:48;102442.44;;;4.80;100.00
24788;BME280;12883;52.662;5.196;2023-01-26T04:31:14;102470.63;;;4.89;100.00
24788;BME280;12883;52.662;5.196;2023-01-26T04:33:40;102471.69;;;4.87;100.00
24788;BME280;12883;52.662;5.196;2023-01-26T04:36:07;102468.59;;;4.93;100.00
24788;BME280;12883;52.662;5.196;2023-01-26T04:38:32;102444.59;;;4.86;100.00
24788;BME280;12883;52.662;5.196;2023-01-26T04:40:58;102470.00;;;5.08;100.00
24788;BME280;12883;52.662;5.196;2023-01-26T04:43:23;102479.09;;;5.15;100.00
24788;BME280;12883;52.662;5.196;2023-01-26T04:45:59;102471.91;;;5.17;100.00
24788;BME280;12883;52.662;5.196;2023-01-26T04:48:27;102436.16;;;5.03;100.00
24788;BME280;12883;52.662;5.196;2023-01-26T04:50:54;102466.25;;;5.32;100.00
24788;BME280;12883;52.662;5.196;2023-01-26T04:53:20;102460.00;;;5.33;100.00
24788;BME280;12883;52.662;5.196;2023-01-26T04:55:45;102457.31;;;5.44;100.00
24788;BME280;12883;52.662;5.196;2023-01-26T04:58:11;102471.03;;;5.59;100.00
24788;BME280;12883;52.662;5.196;2023-01-26T05:00:36;102457.59;;;5.62;100.00
24788;BME280;12883;52.662;5.196;2023-01-26T05:03:02;102458.94;;;5.56;100.00
24788;BME280;12883;52.662;5.196;2023-01-26T05:05:27;102458.38;;;5.73;100.00
24788;BME280;12883;52.662;5.196;2023-01-26T05:07:52;102453.22;;;5.83;100.00
24788;BME280;12883;52.662;5.196;2023-01-26T05:10:18;102456.31;;;5.88;100.00
24788;BME280;12883;52.662;5.196;2023-01-26T05:12:43;102454.53;;;5.88;100.00
24788;BME280;12883;52.662;5.196;2023-01-26T05:15:09;102455.91;;;5.92;100.00
24788;BME280;12883;52.662;5.196;2023-01-26T05:17:34;102454.25;;;5.91;100.00
24788;BME280;12883;52.662;5.196;2023-01-26T05:20:00;102463.81;;;5.92;100.00
24788;BME280;12883;52.662;5.196;2023-01-26T05:22:26;102458.94;;;5.88;100.00
24788;BME280;12883;52.662;5.196;2023-01-26T05:24:52;102459.53;;;5.91;100.00
24788;BME280;12883;52.662;5.196;2023-01-26T05:27:17;102456.56;;;5.85;100.00
24788;BME280;12883;52.662;5.196;2023-01-26T05:29:45;102467.94;;;5.85;100.00
24788;BME280;12883;52.662;5.196;2023-01-26T05:32:11;102474.44;;;5.81;100.00
24788;BME280;12883;52.662;5.196;2023-01-26T05:34:37;102448.38;;;5.67;100.00
24788;BME280;12883;52.662;5.196;2023-01-26T05:37:02;102464.03;;;5.80;100.00
24788;BME280;12883;52.662;5.196;2023-01-26T05:39:28;102467.59;;;5.79;100.00
24788;BME280;12883;52.662;5.196;2023-01-26T05:41:53;102433.97;;;5.51;100.00
24788;BME280;12883;52.662;5.196;2023-01-26T05:44:21;102472.97;;;5.77;100.00
24788;BME280;12883;52.662;5.196;2023-01-26T05:46:46;102477.66;;;5.74;100.00
24788;BME280;12883;52.662;5.196;2023-01-26T05:49:12;102484.34;;;5.78;100.00
24788;BME280;12883;52.662;5.196;2023-01-26T05:51:37;102488.19;;;5.74;100.00
24788;BME280;12883;52.662;5.196;2023-01-26T05:54:03;102480.19;;;5.75;100.00
24788;BME280;12883;52.662;5.196;2023-01-26T05:56:28;102483.94;;;5.62;100.00
24788;BME280;12883;52.662;5.196;2023-01-26T05:58:54;102488.50;;;5.60;100.00
24788;BME280;12883;52.662;5.196;2023-01-26T06:01:19;102492.69;;;5.62;100.00
24788;BME280;12883;52.662;5.196;2023-01-26T06:03:44;102485.75;;;5.61;100.00
24788;BME280;12883;52.662;5.196;2023-01-26T06:06:10;102496.97;;;5.63;100.00
24788;BME280;12883;52.662;5.196;2023-01-26T06:08:35;102483.63;;;5.55;100.00
24788;BME280;12883;52.662;5.196;2023-01-26T06:11:00;102499.88;;;5.60;100.00
24788;BME280;12883;52.662;5.196;2023-01-26T06:13:26;102513.16;;;5.59;100.00
24788;BME280;12883;52.662;5.196;2023-01-26T06:15:51;102511.94;;;5.63;100.00
24788;BME280;12883;52.662;5.196;2023-01-26T06:18:16;102501.78;;;5.58;100.00
24788;BME280;12883;52.662;5.196;2023-01-26T06:20:42;102517.34;;;5.61;100.00
24788;BME280;12883;52.662;5.196;2023-01-26T06:23:07;102513.28;;;5.57;100.00
24788;BME280;12883;52.662;5.196;2023-01-26T06:25:39;102492.00;;;5.49;100.00
24788;BME280;12883;52.662;5.196;2023-01-26T06:28:04;102519.97;;;5.61;100.00
24788;BME280;12883;52.662;5.196;2023-01-26T06:30:30;102527.69;;;5.74;100.00
24788;BME280;12883;52.662;5.196;2023-01-26T06:32:57;102508.78;;;5.80;100.00
24788;BME280;12883;52.662;5.196;2023-01-26T06:35:22;102510.56;;;5.79;100.00
24788;BME280;12883;52.662;5.196;2023-01-26T06:37:48;102520.22;;;5.90;100.00
24788;BME280;12883;52.662;5.196;2023-01-26T06:40:15;102535.28;;;5.99;100.00
24788;BME280;12883;52.662;5.196;2023-01-26T06:42:50;102533.94;;;6.04;100.00
24788;BME280;12883;52.662;5.196;2023-01-26T06:45:16;102535.59;;;6.05;100.00
24788;BME280;12883;52.662;5.196;2023-01-26T06:47:48;102536.75;;;6.12;100.00
24788;BME280;12883;52.662;5.196;2023-01-26T06:50:17;102509.53;;;6.02;100.00
24788;BME280;12883;52.662;5.196;2023-01-26T06:52:46;102468.31;;;5.81;100.00
24788;BME280;12883;52.662;5.196;2023-01-26T06:55:23;102545.31;;;6.25;100.00
24788;BME280;12883;52.662;5.196;2023-01-26T06:57:51;102546.75;;;6.29;100.00
24788;BME280;12883;52.662;5.196;2023-01-26T07:00:17;102558.94;;;6.30;100.00
24788;BME280;12883;52.662;5.196;2023-01-26T07:02:43;102555.94;;;6.35;100.00
24788;BME280;12883;52.662;5.196;2023-01-26T07:05:08;102552.03;;;6.39;100.00
24788;BME280;12883;52.662;5.196;2023-01-26T07:07:35;102552.72;;;6.31;100.00
24788;BME280;12883;52.662;5.196;2023-01-26T07:10:01;102551.75;;;6.32;100.00
24788;BME280;12883;52.662;5.196;2023-01-26T07:12:43;102557.72;;;6.34;100.00
24788;BME280;12883;52.662;5.196;2023-01-26T07:15:10;102555.81;;;6.36;100.00
24788;BME280;12883;52.662;5.196;2023-01-26T07:17:37;102561.19;;;6.35;100.00
24788;BME280;12883;52.662;5.196;2023-01-26T07:20:02;102557.53;;;6.26;100.00
24788;BME280;12883;52.662;5.196;2023-01-26T07:22:28;102600.47;;;6.38;100.00
24788;BME280;12883;52.662;5.196;2023-01-26T07:24:53;102562.47;;;6.40;100.00
24788;BME280;12883;52.662;5.196;2023-01-26T07:27:18;102565.88;;;6.31;100.00
24788;BME280;12883;52.662;5.196;2023-01-26T07:29:44;102571.97;;;6.32;100.00
24788;BME280;12883;52.662;5.196;2023-01-26T07:32:11;102560.44;;;6.23;100.00
24788;BME280;12883;52.662;5.196;2023-01-26T07:34:36;102564.19;;;6.10;100.00
24788;BME280;12883;52.662;5.196;2023-01-26T07:37:01;102565.28;;;6.07;100.00
24788;BME280;12883;52.662;5.196;2023-01-26T07:39:27;102569.97;;;6.04;100.00
24788;BME280;12883;52.662;5.196;2023-01-26T07:41:52;102559.22;;;5.96;100.00
24788;BME280;12883;52.662;5.196;2023-01-26T07:44:18;102589.75;;;5.98;100.00
24788;BME280;12883;52.662;5.196;2023-01-26T07:46:43;102590.75;;;5.86;100.00
24788;BME280;12883;52.662;5.196;2023-01-26T07:49:08;102592.66;;;5.95;100.00
24788;BME280;12883;52.662;5.196;2023-01-26T07:51:36;102592.44;;;5.76;100.00
24788;BME280;12883;52.662;5.196;2023-01-26T07:54:02;102608.03;;;5.79;100.00
24788;BME280;12883;52.662;5.196;2023-01-26T07:56:27;102553.53;;;5.48;100.00
24788;BME280;12883;52.662;5.196;2023-01-26T07:58:53;102606.31;;;5.78;100.00
24788;BME280;12883;52.662;5.196;2023-01-26T08:01:19;102609.44;;;5.72;100.00
24788;BME280;12883;52.662;5.196;2023-01-26T08:03:45;102603.84;;;5.66;100.00
24788;BME280;12883;52.662;5.196;2023-01-26T08:06:11;102612.81;;;5.63;100.00
24788;BME280;12883;52.662;5.196;2023-01-26T08:08:36;102607.94;;;5.59;100.00
24788;BME280;12883;52.662;5.196;2023-01-26T08:11:06;102603.16;;;5.53;100.00
24788;BME280;12883;52.662;5.196;2023-01-26T08:13:31;102606.28;;;5.58;100.00
24788;BME280;12883;52.662;5.196;2023-01-26T08:16:01;102623.63;;;5.60;100.00
24788;BME280;12883;52.662;5.196;2023-01-26T08:18:27;102619.31;;;5.48;100.00
24788;BME280;12883;52.662;5.196;2023-01-26T08:20:53;102616.44;;;5.51;100.00
24788;BME280;12883;52.662;5.196;2023-01-26T08:23:19;102623.75;;;5.48;100.00
24788;BME280;12883;52.662;5.196;2023-01-26T08:25:45;102619.22;;;5.39;100.00
24788;BME280;12883;52.662;5.196;2023-01-26T08:28:11;102611.53;;;5.47;100.00
24788;BME280;12883;52.662;5.196;2023-01-26T08:30:37;102625.78;;;5.44;100.00
24788;BME280;12883;52.662;5.196;2023-01-26T08:33:03;102626.25;;;5.49;100.00
24788;BME280;12883;52.662;5.196;2023-01-26T08:35:30;102622.66;;;5.50;100.00
24788;BME280;12883;52.662;5.196;2023-01-26T08:37:55;102631.75;;;5.57;100.00
24788;BME280;12883;52.662;5.196;2023-01-26T08:40:20;102631.53;;;5.60;100.00
24788;BME280;12883;52.662;5.196;2023-01-26T08:42:46;102606.38;;;5.45;100.00
24788;BME280;12883;52.662;5.196;2023-01-26T08:45:11;102628.47;;;5.76;100.00
24788;BME280;12883;52.662;5.196;2023-01-26T08:47:36;102629.56;;;5.84;100.00
24788;BME280;12883;52.662;5.196;2023-01-26T08:50:02;102625.00;;;5.86;100.00
24788;BME280;12883;52.662;5.196;2023-01-26T08:52:28;102637.47;;;5.84;100.00
24788;BME280;12883;52.662;5.196;2023-01-26T08:54:53;102635.31;;;5.89;100.00
24788;BME280;12883;52.662;5.196;2023-01-26T08:57:18;102637.19;;;5.98;100.00
24788;BME280;12883;52.662;5.196;2023-01-26T08:59:44;102645.75;;;6.11;100.00
24788;BME280;12883;52.662;5.196;2023-01-26T09:02:09;102644.78;;;6.23;100.00
24788;BME280;12883;52.662;5.196;2023-01-26T09:04:35;102649.00;;;6.35;100.00
24788;BME280;12883;52.662;5.196;2023-01-26T09:07:00;102646.59;;;6.43;100.00
24788;BME280;12883;52.662;5.196;2023-01-26T09:09:26;102602.09;;;6.29;100.00
24788;BME280;12883;52.662;5.196;2023-01-26T09:11:55;102649.03;;;6.56;100.00
24788;BME280;12883;52.662;5.196;2023-01-26T09:14:20;102644.94;;;6.63;100.00
24788;BME280;12883;52.662;5.196;2023-01-26T09:16:46;102653.06;;;6.60;100.00
24788;BME280;12883;52.662;5.196;2023-01-26T09:19:12;102641.44;;;6.62;100.00
24788;BME280;12883;52.662;5.196;2023-01-26T09:21:37;102606.47;;;6.40;100.00
24788;BME280;12883;52.662;5.196;2023-01-26T09:24:02;102638.16;;;6.70;100.00
24788;BME280;12883;52.662;5.196;2023-01-26T09:26:29;102641.78;;;6.69;100.00
24788;BME280;12883;52.662;5.196;2023-01-26T09:28:55;102636.56;;;6.78;100.00
24788;BME280;12883;52.662;5.196;2023-01-26T09:31:21;102614.81;;;6.65;100.00
24788;BME280;12883;52.662;5.196;2023-01-26T09:33:47;102640.88;;;6.79;100.00
24788;BME280;12883;52.662;5.196;2023-01-26T09:36:13;102641.56;;;6.81;100.00
24788;BME280;12883;52.662;5.196;2023-01-26T09:38:39;102651.78;;;6.95;100.00
24788;BME280;12883;52.662;5.196;2023-01-26T09:41:21;102650.56;;;6.99;100.00
24788;BME280;12883;52.662;5.196;2023-01-26T09:43:56;102649.66;;;7.10;100.00
24788;BME280;12883;52.662;5.196;2023-01-26T09:46:26;102644.22;;;7.11;100.00
24788;BME280;12883;52.662;5.196;2023-01-26T09:49:08;102652.59;;;7.16;100.00
24788;BME280;12883;52.662;5.196;2023-01-26T09:51:49;102646.50;;;7.25;100.00
24788;BME280;12883;52.662;5.196;2023-01-26T09:54:34;102649.72;;;7.29;100.00
24788;BME280;12883;52.662;5.196;2023-01-26T09:57:11;102652.91;;;7.32;100.00
24788;BME280;12883;52.662;5.196;2023-01-26T09:59:56;102622.03;;;7.23;100.00
24788;BME280;12883;52.662;5.196;2023-01-26T10:02:27;102644.91;;;7.43;100.00
24788;BME280;12883;52.662;5.196;2023-01-26T10:04:57;102639.63;;;7.43;100.00
24788;BME280;12883;52.662;5.196;2023-01-26T10:07:26;102647.19;;;7.57;100.00
24788;BME280;12883;52.662;5.196;2023-01-26T10:09:52;102638.81;;;7.52;100.00
24788;BME280;12883;52.662;5.196;2023-01-26T10:17:38;102658.00;;;7.45;100.00
24788;BME280;12883;52.662;5.196;2023-01-26T10:20:17;102651.03;;;7.53;100.00
24788;BME280;12883;52.662;5.196;2023-01-26T10:22:51;102657.22;;;7.63;100.00
24788;BME280;12883;52.662;5.196;2023-01-26T10:25:19;102660.41;;;7.67;100.00
24788;BME280;12883;52.662;5.196;2023-01-26T10:27:45;102650.69;;;7.67;100.00
24788;BME280;12883;52.662;5.196;2023-01-26T10:30:15;102628.44;;;7.70;100.00
24788;BME280;12883;52.662;5.196;2023-01-26T10:32:43;102661.75;;;8.01;100.00
24788;BME280;12883;52.662;5.196;2023-01-26T10:35:19;102661.31;;;8.05;100.00
24788;BME280;12883;52.662;5.196;2023-01-26T10:37:44;102667.44;;;8.15;100.00
24788;BME280;12883;52.662;5.196;2023-01-26T10:40:10;102668.16;;;8.17;100.00
24788;BME280;12883;52.662;5.196;2023-01-26T10:42:38;102664.03;;;8.24;100.00
24788;BME280;12883;52.662;5.196;2023-01-26T10:45:24;102657.03;;;8.33;100.00
24788;BME280;12883;52.662;5.196;2023-01-26T10:50:31;102663.19;;;8.33;100.00
24788;BME280;12883;52.662;5.196;2023-01-26T10:52:59;102659.00;;;8.40;100.00
24788;BME280;12883;52.662;5.196;2023-01-26T10:55:24;102662.34;;;8.42;100.00
24788;BME280;12883;52.662;5.196;2023-01-26T10:57:51;102658.72;;;8.43;100.00
24788;BME280;12883;52.662;5.196;2023-01-26T11:00:30;102657.91;;;8.43;100.00
24788;BME280;12883;52.662;5.196;2023-01-26T11:03:17;102649.97;;;8.43;100.00
24788;BME280;12883;52.662;5.196;2023-01-26T11:05:43;102659.13;;;8.48;100.00
24788;BME280;12883;52.662;5.196;2023-01-26T11:08:34;102661.22;;;8.54;100.00
24788;BME280;12883;52.662;5.196;2023-01-26T11:11:01;102641.72;;;8.46;100.00
24788;BME280;12883;52.662;5.196;2023-01-26T11:13:28;102667.19;;;8.56;100.00
24788;BME280;12883;52.662;5.196;2023-01-26T11:18:58;102659.81;;;8.50;100.00
24788;BME280;12883;52.662;5.196;2023-01-26T11:21:28;102661.22;;;8.54;100.00
24788;BME280;12883;52.662;5.196;2023-01-26T11:24:19;102652.19;;;8.47;100.00
24788;BME280;12883;52.662;5.196;2023-01-26T11:27:05;102651.75;;;8.61;100.00
24788;BME280;12883;52.662;5.196;2023-01-26T11:40:50;102628.78;;;8.71;100.00
24788;BME280;12883;52.662;5.196;2023-01-26T11:43:50;102660.31;;;8.92;100.00
24788;BME280;12883;52.662;5.196;2023-01-26T11:52:35;102658.97;;;8.78;100.00
24788;BME280;12883;52.662;5.196;2023-01-26T11:55:17;102648.25;;;8.70;100.00
24788;BME280;12883;52.662;5.196;2023-01-26T12:03:04;102642.16;;;8.60;100.00
24788;BME280;12883;52.662;5.196;2023-01-26T12:05:45;102639.50;;;8.70;100.00
24788;BME280;12883;52.662;5.196;2023-01-26T12:08:25;102643.91;;;8.88;100.00
24788;BME280;12883;52.662;5.196;2023-01-26T12:13:34;102620.69;;;8.63;100.00
24788;BME280;12883;52.662;5.196;2023-01-26T12:16:14;102640.84;;;8.74;100.00
24788;BME280;12883;52.662;5.196;2023-01-26T12:18:47;102640.31;;;8.70;100.00
24788;BME280;12883;52.662;5.196;2023-01-26T12:21:19;102627.06;;;8.70;100.00
24788;BME280;12883;52.662;5.196;2023-01-26T12:23:58;102625.28;;;8.61;100.00
24788;BME280;12883;52.662;5.196;2023-01-26T12:26:29;102589.13;;;8.43;100.00
24788;BME280;12883;52.662;5.196;2023-01-26T12:31:54;102610.81;;;8.65;100.00
24788;BME280;12883;52.662;5.196;2023-01-26T12:34:26;102611.06;;;8.72;100.00
24788;BME280;12883;52.662;5.196;2023-01-26T12:39:44;102609.94;;;8.74;100.00
24788;BME280;12883;52.662;5.196;2023-01-26T12:42:56;102605.44;;;8.84;100.00
24788;BME280;12883;52.662;5.196;2023-01-26T12:45:20;102594.06;;;8.74;100.00
24788;BME280;12883;52.662;5.196;2023-01-26T12:47:50;102607.81;;;8.87;100.00
24788;BME280;12883;52.662;5.196;2023-01-26T12:50:28;102610.88;;;8.92;100.00
24788;BME280;12883;52.662;5.196;2023-01-26T12:52:59;102598.59;;;8.91;100.00
24788;BME280;12883;52.662;5.196;2023-01-26T12:58:28;102585.97;;;8.85;100.00
24788;BME280;12883;52.662;5.196;2023-01-26T13:03:33;102588.44;;;8.87;100.00
24788;BME280;12883;52.662;5.196;2023-01-26T13:11:04;102591.53;;;8.82;100.00
24788;BME280;12883;52.662;5.196;2023-01-26T13:13:33;102598.47;;;8.83;100.00
24788;BME280;12883;52.662;5.196;2023-01-26T13:18:50;102540.72;;;8.69;100.00
24788;BME280;12883;52.662;5.196;2023-01-26T13:21:45;102583.69;;;8.90;100.00
24788;BME280;12883;52.662;5.196;2023-01-26T13:27:25;102588.72;;;8.93;100.00
24788;BME280;12883;52.662;5.196;2023-01-26T13:29:52;102596.75;;;9.01;100.00
24788;BME280;12883;52.662;5.196;2023-01-26T13:34:57;102599.31;;;8.93;100.00
24788;BME280;12883;52.662;5.196;2023-01-26T13:40:28;102591.47;;;9.01;100.00
24788;BME280;12883;52.662;5.196;2023-01-26T13:48:15;102580.03;;;8.64;100.00
24788;BME280;12883;52.662;5.196;2023-01-26T13:50:44;102589.28;;;8.87;100.00
24788;BME280;12883;52.662;5.196;2023-01-26T13:53:37;102584.81;;;8.88;100.00
24788;BME280;12883;52.662;5.196;2023-01-26T13:56:18;102589.25;;;8.97;100.00
24788;BME280;12883;52.662;5.196;2023-01-26T13:58:44;102589.69;;;8.92;100.00
24788;BME280;12883;52.662;5.196;2023-01-26T14:01:11;102582.63;;;8.74;100.00
24788;BME280;12883;52.662;5.196;2023-01-26T14:03:37;102589.28;;;8.87;100.00
24788;BME280;12883;52.662;5.196;2023-01-26T14:06:06;102589.63;;;8.75;100.00
24788;BME280;12883;52.662;5.196;2023-01-26T14:08:34;102583.78;;;8.71;100.00
24788;BME280;12883;52.662;5.196;2023-01-26T14:11:02;102599.38;;;8.65;100.00
24788;BME280;12883;52.662;5.196;2023-01-26T14:13:32;102594.75;;;8.76;100.00
24788;BME280;12883;52.662;5.196;2023-01-26T14:15:59;102555.13;;;8.57;100.00
24788;BME280;12883;52.662;5.196;2023-01-26T14:18:25;102586.22;;;8.82;100.00
24788;BME280;12883;52.662;5.196;2023-01-26T14:20:58;102588.19;;;8.80;100.00